createdAt,value
2019-02-14T00:02:03.912Z,26.45
2019-02-14T00:07:08.855Z,26.43
2019-02-14T00:12:14.949Z,26.40
2019-02-14T00:17:20.948Z,26.40
2019-02-14T00:22:26.759Z,26.41
2019-02-14T00:27:32.880Z,26.38
2019-02-14T00:32:38.927Z,26.38
2019-02-14T00:37:44.591Z,26.42
2019-02-14T00:42:50.505Z,26.41
2019-02-14T00:47:55.135Z,26.40
2019-02-14T00:53:00.764Z,26.40
2019-02-14T00:58:06.936Z,26.65
2019-02-14T01:03:12.771Z,26.91
2019-02-14T01:08:18.526Z,26.67
2019-02-14T01:13:24.686Z,26.66
2019-02-14T01:18:30.600Z,26.64
2019-02-14T01:23:35.488Z,26.67
2019-02-14T01:28:41.202Z,26.64
2019-02-14T01:33:47.392Z,26.80
2019-02-14T01:38:53.425Z,26.75
2019-02-14T01:43:59.245Z,26.75
2019-02-14T01:49:05.138Z,26.84
2019-02-14T01:54:11.076Z,26.83
2019-02-14T01:59:16.803Z,26.81
2019-02-14T02:04:22.848Z,26.74
2019-02-14T02:09:28.964Z,26.67
2019-02-14T02:14:35.549Z,26.71
2019-02-14T02:19:41.626Z,26.65
2019-02-14T02:24:47.903Z,26.64
2019-02-14T02:29:54.086Z,26.68
2019-02-14T02:35:00.411Z,26.54
2019-02-14T02:40:07.137Z,26.55
2019-02-14T02:45:13.880Z,26.53
2019-02-14T02:50:19.846Z,26.52
2019-02-14T02:55:24.442Z,26.97
2019-02-14T03:00:30.648Z,26.78
2019-02-14T03:05:36.827Z,27.26
2019-02-14T03:10:42.692Z,26.99
2019-02-14T03:15:48.587Z,26.87
2019-02-14T03:20:54.629Z,26.95
2019-02-14T03:26:00.525Z,26.96
2019-02-14T03:31:06.442Z,27.00
2019-02-14T03:36:18.925Z,27.33
2019-02-14T03:41:20.001Z,27.28
2019-02-14T03:46:26.064Z,27.14
2019-02-14T03:51:32.122Z,27.25
2019-02-14T03:56:37.709Z,27.20
2019-02-14T04:01:43.609Z,26.91
2019-02-14T04:06:49.502Z,26.74
2019-02-14T04:11:55.205Z,27.25
2019-02-14T04:17:00.093Z,26.92
2019-02-14T04:22:05.946Z,26.83
2019-02-14T04:27:10.702Z,26.87
2019-02-14T04:32:16.566Z,26.84
2019-02-14T04:37:22.644Z,26.84
2019-02-14T04:42:28.723Z,26.79
2019-02-14T04:47:34.840Z,26.79
2019-02-14T04:52:40.744Z,26.77
2019-02-14T04:57:46.404Z,26.70
2019-02-14T05:02:52.291Z,26.78
2019-02-14T05:07:58.407Z,26.80
2019-02-14T05:13:04.134Z,26.75
2019-02-14T05:18:08.723Z,26.71
2019-02-14T05:23:14.351Z,26.69
2019-02-14T05:28:20.781Z,26.65
2019-02-14T05:33:29.037Z,26.66
2019-02-14T05:38:34.673Z,26.67
2019-02-14T05:43:40.741Z,26.72
2019-02-14T05:48:46.894Z,26.68
2019-02-14T05:53:53.165Z,26.64
2019-02-14T05:58:59.040Z,26.62
2019-02-14T06:04:04.842Z,26.64
2019-02-14T06:09:10.955Z,26.64
2019-02-14T06:14:16.856Z,26.64
2019-02-14T06:19:22.738Z,26.65
2019-02-14T06:24:28.823Z,26.64
2019-02-14T06:29:35.047Z,26.64
2019-02-14T06:34:41.526Z,26.58
2019-02-14T06:39:47.444Z,26.58
2019-02-14T06:44:53.077Z,26.54
2019-02-14T06:49:58.996Z,26.50
2019-02-14T06:55:04.590Z,26.54
2019-02-14T07:00:14.490Z,26.56
2019-02-14T07:05:20.633Z,26.54
2019-02-14T07:10:26.706Z,26.55
2019-02-14T07:15:32.785Z,26.51
2019-02-14T07:20:38.660Z,26.77
2019-02-14T07:25:44.571Z,27.21
2019-02-14T07:30:50.574Z,27.06
2019-02-14T07:35:56.464Z,26.69
2019-02-14T07:41:02.544Z,26.70
2019-02-14T07:46:08.857Z,26.71
2019-02-14T07:51:14.932Z,26.74
2019-02-14T07:56:21.184Z,26.73
2019-02-14T08:01:27.408Z,26.84
2019-02-14T08:06:33.659Z,26.64
2019-02-14T08:11:39.653Z,26.81
2019-02-14T08:16:45.616Z,26.50
2019-02-14T08:21:50.241Z,26.73
2019-02-14T08:26:53.588Z,26.52
2019-02-14T08:31:56.755Z,26.84
2019-02-14T08:36:59.721Z,26.83
2019-02-14T08:42:02.681Z,26.83
2019-02-14T08:47:05.833Z,26.55
2019-02-14T08:52:08.833Z,26.67
2019-02-14T08:57:11.988Z,26.63
2019-02-14T09:02:14.951Z,26.73
2019-02-14T09:07:17.949Z,26.71
2019-02-14T09:12:20.986Z,26.52
2019-02-14T09:17:23.945Z,26.51
2019-02-14T09:22:26.949Z,26.66
2019-02-14T09:27:30.046Z,26.74
2019-02-14T09:32:33.252Z,26.52
2019-02-14T09:37:36.363Z,26.50
2019-02-14T09:42:39.681Z,26.45
2019-02-14T09:47:42.664Z,26.45
2019-02-14T09:52:46.060Z,26.46
2019-02-14T09:57:49.042Z,26.47
2019-02-14T10:02:51.985Z,26.49
2019-02-14T10:07:55.034Z,26.43
2019-02-14T10:12:58.434Z,26.47
2019-02-14T10:18:01.493Z,26.40
2019-02-14T10:23:04.573Z,26.05
2019-02-14T10:28:07.640Z,26.35
2019-02-14T10:33:11.144Z,26.24
2019-02-14T10:38:22.098Z,25.66
2019-02-14T10:43:19.245Z,25.66
2019-02-14T10:48:22.286Z,24.42
2019-02-14T10:53:25.554Z,26.03
2019-02-14T10:58:28.507Z,26.35
2019-02-14T11:03:31.509Z,26.21
2019-02-14T11:08:34.847Z,26.38
2019-02-14T11:13:38.133Z,26.36
2019-02-14T11:18:44.270Z,26.35
2019-02-14T11:23:46.425Z,26.47
2019-02-14T11:28:49.385Z,26.48
2019-02-14T11:33:52.379Z,26.47
2019-02-14T11:38:55.422Z,26.39
2019-02-14T11:43:58.644Z,26.42
2019-02-14T11:49:01.752Z,26.57
2019-02-14T11:54:04.768Z,26.54
2019-02-14T11:59:07.765Z,26.99
2019-02-14T12:04:11.065Z,27.03
2019-02-14T12:09:14.336Z,27.03
2019-02-14T12:14:17.274Z,26.96
2019-02-14T12:19:20.229Z,26.79
2019-02-14T12:24:23.461Z,26.84
2019-02-14T12:29:26.524Z,26.90
2019-02-14T12:34:29.494Z,26.63
2019-02-14T12:39:32.671Z,26.63
2019-02-14T12:44:35.662Z,26.56
2019-02-14T12:49:38.866Z,26.60
2019-02-14T12:54:41.800Z,26.69
2019-02-14T12:59:44.803Z,26.66
2019-02-14T13:04:48.239Z,26.70
2019-02-14T13:09:51.380Z,26.75
2019-02-14T13:14:54.474Z,26.66
2019-02-14T13:19:57.419Z,26.85
2019-02-14T13:25:00.402Z,26.88
2019-02-14T13:30:05.448Z,26.84
2019-02-14T13:35:08.427Z,26.68
2019-02-14T13:40:11.501Z,26.68
2019-02-14T13:45:16.879Z,26.73
2019-02-14T13:50:20.366Z,26.88
2019-02-14T13:55:23.479Z,26.81
2019-02-14T14:00:27.061Z,27.04
2019-02-14T14:05:30.190Z,26.89
2019-02-14T14:10:33.479Z,26.66
2019-02-14T14:15:36.418Z,26.81
2019-02-14T14:20:39.741Z,26.93
2019-02-14T14:25:42.716Z,26.74
2019-02-14T14:30:45.734Z,26.79
2019-02-14T14:35:48.725Z,26.72
2019-02-14T14:40:51.903Z,26.67
2019-02-14T14:46:26.523Z,26.74
2019-02-14T14:51:29.928Z,26.63
2019-02-14T14:56:33.122Z,26.57
2019-02-14T15:01:36.143Z,26.62
2019-02-14T15:06:39.141Z,26.59
2019-02-14T15:11:42.108Z,26.59
2019-02-14T15:16:45.070Z,26.65
2019-02-14T15:21:48.011Z,26.63
2019-02-14T15:26:51.132Z,26.60
2019-02-14T15:31:54.056Z,26.67
2019-02-14T15:36:57.232Z,26.54
2019-02-14T15:42:00.663Z,26.52
2019-02-14T15:47:03.755Z,26.56
2019-02-14T15:52:07.733Z,26.62
2019-02-14T15:57:11.042Z,26.52
2019-02-14T16:02:14.314Z,26.54
2019-02-14T16:07:17.619Z,26.54
2019-02-14T16:12:21.871Z,26.51
2019-02-14T16:17:25.011Z,26.55
2019-02-14T16:22:30.037Z,26.53
2019-02-14T16:27:33.251Z,26.51
2019-02-14T16:32:36.346Z,26.43
2019-02-14T16:37:39.292Z,26.43
2019-02-14T16:42:42.292Z,26.44
2019-02-14T16:47:45.331Z,26.40
2019-02-14T16:52:48.435Z,26.51
2019-02-14T16:57:51.418Z,26.49
2019-02-14T17:02:54.618Z,26.57
2019-02-14T17:07:58.133Z,26.48
2019-02-14T17:13:01.408Z,26.76
2019-02-14T17:18:04.353Z,26.47
2019-02-14T17:23:07.442Z,26.51
2019-02-14T17:28:10.415Z,26.91
2019-02-14T17:33:13.422Z,26.39
2019-02-14T17:38:16.430Z,26.46
2019-02-14T17:43:19.414Z,26.55
2019-02-14T17:48:22.407Z,26.59
2019-02-14T17:53:25.437Z,26.57
2019-02-14T17:58:28.406Z,26.64
2019-02-14T18:03:31.347Z,26.62
2019-02-14T18:08:34.785Z,26.70
2019-02-14T18:13:37.857Z,26.72
2019-02-14T18:18:41.077Z,26.72
2019-02-14T18:23:44.070Z,26.64
2019-02-14T18:28:47.038Z,26.70
2019-02-14T18:33:50.164Z,26.71
2019-02-14T18:38:53.111Z,26.59
2019-02-14T18:43:56.276Z,26.74
2019-02-14T18:48:59.393Z,26.55
2019-02-14T18:54:02.799Z,26.58
2019-02-14T18:59:05.794Z,26.49
2019-02-14T19:04:08.770Z,26.59
2019-02-14T19:09:12.320Z,26.57
2019-02-14T19:14:15.282Z,26.49
2019-02-14T19:19:18.426Z,26.42
2019-02-14T19:24:21.578Z,26.38
2019-02-14T19:29:24.611Z,26.76
2019-02-14T19:34:27.589Z,26.61
2019-02-14T19:39:30.815Z,26.55
2019-02-14T19:44:33.770Z,26.44
2019-02-14T19:49:36.764Z,26.40
2019-02-14T19:54:40.115Z,26.39
2019-02-14T19:59:43.197Z,26.40
2019-02-14T20:04:46.269Z,26.42
2019-02-14T20:09:49.721Z,26.54
2019-02-14T20:14:53.186Z,26.79
2019-02-14T20:19:56.240Z,26.82
2019-02-14T20:24:59.248Z,26.82
2019-02-14T20:30:02.866Z,26.91
2019-02-14T20:35:05.877Z,26.90
2019-02-14T20:40:09.060Z,26.90
2019-02-14T20:45:12.332Z,26.97
2019-02-14T20:50:15.769Z,26.76
2019-02-14T20:55:18.924Z,27.03
2019-02-14T21:00:27.724Z,27.14
2019-02-14T21:05:30.876Z,27.06
2019-02-14T21:10:34.122Z,27.05
2019-02-14T21:15:37.222Z,26.97
2019-02-14T21:20:40.318Z,27.08
2019-02-14T21:25:43.461Z,27.02
2019-02-14T21:30:46.412Z,26.96
2019-02-14T21:35:51.232Z,27.00
2019-02-14T21:40:54.283Z,27.02
2019-02-14T21:45:57.320Z,27.04
2019-02-14T21:51:00.824Z,27.07
2019-02-14T21:56:04.318Z,26.98
2019-02-14T22:01:08.374Z,26.73
2019-02-14T22:06:11.493Z,26.76
2019-02-14T22:11:14.481Z,26.76
2019-02-14T22:16:17.583Z,26.94
2019-02-14T22:21:20.645Z,27.05
2019-02-14T22:26:23.755Z,27.07
2019-02-14T22:31:26.717Z,27.05
2019-02-14T22:36:29.993Z,27.01
2019-02-14T22:41:33.080Z,27.13
2019-02-14T22:46:36.138Z,27.08
2019-02-14T22:51:39.080Z,26.67
2019-02-14T22:56:42.235Z,27.16
2019-02-14T23:01:45.590Z,26.82
2019-02-14T23:06:48.536Z,26.89
2019-02-14T23:11:52.164Z,26.60
2019-02-14T23:16:55.238Z,26.44
2019-02-14T23:21:58.279Z,26.42
2019-02-14T23:27:01.277Z,26.67
2019-02-14T23:32:04.564Z,26.69
2019-02-14T23:37:07.505Z,26.52
2019-02-14T23:42:10.630Z,26.68
2019-02-14T23:47:13.608Z,26.45
2019-02-14T23:52:16.693Z,26.84
2019-02-14T23:57:19.645Z,26.44
